sensor_id;sensor_type;location;lat;lon;timestamp;pressure;altitude;pressure_sealevel;temperature;humidity
31299;BME280;17927;52.350;13.402;2022-09-16T00:00:52;100111.31;;;16.86;54.30
31299;BME280;17927;52.350;13.402;2022-09-16T00:03:18;100110.00;;;16.82;54.21
31299;BME280;17927;52.350;13.402;2022-09-16T00:05:49;100111.47;;;16.78;54.35
31299;BME280;17927;52.350;13.402;2022-09-16T00:08:15;100113.75;;;16.74;54.50
31299;BME280;17927;52.350;13.402;2022-09-16T00:10:40;100118.38;;;16.74;54.62
31299;BME280;17927;52.350;13.402;2022-09-16T00:13:07;100117.28;;;16.68;54.81
31299;BME280;17927;52.350;13.402;2022-09-16T00:15:32;100117.47;;;16.67;54.62
31299;BME280;17927;52.350;13.402;2022-09-16T00:17:58;100119.56;;;16.65;54.76
31299;BME280;17927;52.350;13.402;2022-09-16T00:20:23;100115.34;;;16.62;55.08
31299;BME280;17927;52.350;13.402;2022-09-16T00:22:49;100122.88;;;16.60;54.79
31299;BME280;17927;52.350;13.402;2022-09-16T00:25:14;100118.44;;;16.59;54.95
31299;BME280;17927;52.350;13.402;2022-09-16T00:27:39;100115.09;;;16.57;55.07
31299;BME280;17927;52.350;13.402;2022-09-16T00:30:05;100118.00;;;16.55;54.88
31299;BME280;17927;52.350;13.402;2022-09-16T00:32:30;100114.63;;;16.53;54.86
31299;BME280;17927;52.350;13.402;2022-09-16T00:34:56;100121.56;;;16.49;55.14
31299;BME280;17927;52.350;13.402;2022-09-16T00:37:21;100118.19;;;16.47;55.03
31299;BME280;17927;52.350;13.402;2022-09-16T00:39:47;100120.25;;;16.45;55.16
31299;BME280;17927;52.350;13.402;2022-09-16T00:42:13;100125.06;;;16.43;55.15
31299;BME280;17927;52.350;13.402;2022-09-16T00:44:52;100125.44;;;16.40;55.43
31299;BME280;17927;52.350;13.402;2022-09-16T00:47:39;100123.97;;;16.37;55.52
31299;BME280;17927;52.350;13.402;2022-09-16T00:50:09;100123.03;;;16.30;55.38
31299;BME280;17927;52.350;13.402;2022-09-16T00:52:37;100134.16;;;16.28;55.42
31299;BME280;17927;52.350;13.402;2022-09-16T00:55:06;100137.09;;;16.27;55.62
31299;BME280;17927;52.350;13.402;2022-09-16T00:57:33;100131.00;;;16.25;55.55
31299;BME280;17927;52.350;13.402;2022-09-16T00:59:59;100116.72;;;16.23;55.87
31299;BME280;17927;52.350;13.402;2022-09-16T01:02:25;100131.53;;;16.20;56.13
31299;BME280;17927;52.350;13.402;2022-09-16T01:04:59;100127.34;;;16.18;56.20
31299;BME280;17927;52.350;13.402;2022-09-16T01:07:32;100132.13;;;16.16;56.26
31299;BME280;17927;52.350;13.402;2022-09-16T01:09:58;100127.94;;;16.13;56.37
31299;BME280;17927;52.350;13.402;2022-09-16T01:12:25;100133.59;;;16.11;56.41
31299;BME280;17927;52.350;13.402;2022-09-16T01:14:51;100132.72;;;16.11;56.39
31299;BME280;17927;52.350;13.402;2022-09-16T01:17:42;100135.66;;;16.09;56.62
31299;BME280;17927;52.350;13.402;2022-09-16T01:20:34;100140.00;;;16.04;56.67
31299;BME280;17927;52.350;13.402;2022-09-16T01:23:30;100139.53;;;16.00;56.85
31299;BME280;17927;52.350;13.402;2022-09-16T01:29:20;100146.44;;;15.96;57.20
31299;BME280;17927;52.350;13.402;2022-09-16T01:40:15;100135.31;;;15.82;57.73
31299;BME280;17927;52.350;13.402;2022-09-16T01:42:55;100143.69;;;15.81;57.44
31299;BME280;17927;52.350;13.402;2022-09-16T01:45:46;100128.19;;;15.81;57.50
31299;BME280;17927;52.350;13.402;2022-09-16T01:48:33;100131.13;;;15.80;57.67
31299;BME280;17927;52.350;13.402;2022-09-16T01:51:05;100129.63;;;15.77;57.68
31299;BME280;17927;52.350;13.402;2022-09-16T01:53:38;100132.81;;;15.81;57.75
31299;BME280;17927;52.350;13.402;2022-09-16T02:01:58;100132.25;;;15.86;58.13
31299;BME280;17927;52.350;13.402;2022-09-16T02:04:29;100121.38;;;15.86;58.07
31299;BME280;17927;52.350;13.402;2022-09-16T02:06:57;100131.88;;;15.89;58.03
31299;BME280;17927;52.350;13.402;2022-09-16T02:09:29;100129.16;;;15.89;58.08
31299;BME280;17927;52.350;13.402;2022-09-16T02:12:00;100128.13;;;15.90;57.92
31299;BME280;17927;52.350;13.402;2022-09-16T02:14:32;100132.69;;;15.89;57.91
31299;BME280;17927;52.350;13.402;2022-09-16T02:17:01;100128.31;;;15.88;58.22
31299;BME280;17927;52.350;13.402;2022-09-16T02:19:35;100123.91;;;15.87;58.05
31299;BME280;17927;52.350;13.402;2022-09-16T02:22:04;100127.66;;;15.86;58.27
31299;BME280;17927;52.350;13.402;2022-09-16T02:24:32;100127.66;;;15.71;58.43
31299;BME280;17927;52.350;13.402;2022-09-16T02:27:00;100125.41;;;15.75;58.40
31299;BME280;17927;52.350;13.402;2022-09-16T02:29:36;100129.22;;;15.80;58.49
31299;BME280;17927;52.350;13.402;2022-09-16T02:32:05;100120.03;;;15.81;58.74
31299;BME280;17927;52.350;13.402;2022-09-16T02:34:40;100130.91;;;15.81;58.64
31299;BME280;17927;52.350;13.402;2022-09-16T02:37:10;100126.34;;;15.82;58.68
31299;BME280;17927;52.350;13.402;2022-09-16T02:39:39;100119.00;;;15.82;58.69
31299;BME280;17927;52.350;13.402;2022-09-16T02:42:07;100123.41;;;15.83;58.55
31299;BME280;17927;52.350;13.402;2022-09-16T02:44:32;100121.53;;;15.84;58.76
31299;BME280;17927;52.350;13.402;2022-09-16T02:47:09;100122.38;;;15.84;58.70
31299;BME280;17927;52.350;13.402;2022-09-16T02:50:00;100118.16;;;15.82;58.63
31299;BME280;17927;52.350;13.402;2022-09-16T02:52:39;100123.78;;;15.80;58.79
31299;BME280;17927;52.350;13.402;2022-09-16T02:55:21;100128.41;;;15.80;58.88
31299;BME280;17927;52.350;13.402;2022-09-16T02:57:51;100126.25;;;15.75;58.70
31299;BME280;17927;52.350;13.402;2022-09-16T03:00:16;100125.03;;;15.78;58.91
31299;BME280;17927;52.350;13.402;2022-09-16T03:02:41;100135.91;;;15.78;58.78
31299;BME280;17927;52.350;13.402;2022-09-16T03:05:07;100132.53;;;15.76;58.93
31299;BME280;17927;52.350;13.402;2022-09-16T03:07:34;100138.84;;;15.76;58.88
31299;BME280;17927;52.350;13.402;2022-09-16T03:09:59;100136.50;;;15.73;58.75
31299;BME280;17927;52.350;13.402;2022-09-16T03:13:01;100132.09;;;15.72;58.91
31299;BME280;17927;52.350;13.402;2022-09-16T03:15:32;100132.00;;;15.65;58.80
31299;BME280;17927;52.350;13.402;2022-09-16T03:21:05;100133.63;;;15.60;59.05
31299;BME280;17927;52.350;13.402;2022-09-16T03:24:07;100124.81;;;15.58;59.04
31299;BME280;17927;52.350;13.402;2022-09-16T03:26:46;100122.66;;;15.53;59.02
31299;BME280;17927;52.350;13.402;2022-09-16T03:29:37;100120.09;;;15.51;58.96
31299;BME280;17927;52.350;13.402;2022-09-16T03:32:18;100120.50;;;15.48;59.08
31299;BME280;17927;52.350;13.402;2022-09-16T03:34:54;100118.16;;;15.45;58.98
31299;BME280;17927;52.350;13.402;2022-09-16T03:37:24;100120.41;;;15.42;59.09
31299;BME280;17927;52.350;13.402;2022-09-16T03:39:54;100119.78;;;15.40;59.18
31299;BME280;17927;52.350;13.402;2022-09-16T03:42:22;100118.91;;;15.39;59.24
31299;BME280;17927;52.350;13.402;2022-09-16T03:44:47;100123.53;;;15.38;59.30
31299;BME280;17927;52.350;13.402;2022-09-16T03:47:13;100117.44;;;15.36;59.38
31299;BME280;17927;52.350;13.402;2022-09-16T03:49:39;100118.25;;;15.37;59.42
31299;BME280;17927;52.350;13.402;2022-09-16T03:52:04;100119.28;;;15.36;59.70
31299;BME280;17927;52.350;13.402;2022-09-16T03:54:30;100121.19;;;15.35;59.60
31299;BME280;17927;52.350;13.402;2022-09-16T03:56:56;100118.47;;;15.35;59.74
31299;BME280;17927;52.350;13.402;2022-09-16T03:59:21;100126.78;;;15.34;59.69
31299;BME280;17927;52.350;13.402;2022-09-16T04:01:46;100125.97;;;15.33;59.88
31299;BME280;17927;52.350;13.402;2022-09-16T04:04:11;100115.28;;;15.32;59.54
31299;BME280;17927;52.350;13.402;2022-09-16T04:06:37;100118.84;;;15.32;60.04
31299;BME280;17927;52.350;13.402;2022-09-16T04:09:04;100124.47;;;15.31;59.93
31299;BME280;17927;52.350;13.402;2022-09-16T04:11:30;100122.97;;;15.28;60.08
31299;BME280;17927;52.350;13.402;2022-09-16T04:13:56;100117.72;;;15.27;59.96
31299;BME280;17927;52.350;13.402;2022-09-16T04:16:22;100116.84;;;15.26;60.26
31299;BME280;17927;52.350;13.402;2022-09-16T04:18:47;100115.19;;;15.25;60.36
31299;BME280;17927;52.350;13.402;2022-09-16T04:21:13;100113.31;;;15.26;60.37
31299;BME280;17927;52.350;13.402;2022-09-16T04:23:38;100114.13;;;15.26;59.73
31299;BME280;17927;52.350;13.402;2022-09-16T04:26:04;100118.75;;;15.26;60.29
31299;BME280;17927;52.350;13.402;2022-09-16T04:28:31;100113.50;;;15.24;60.21
31299;BME280;17927;52.350;13.402;2022-09-16T04:31:00;100117.25;;;15.23;60.06
31299;BME280;17927;52.350;13.402;2022-09-16T04:33:28;100106.75;;;15.20;59.92
31299;BME280;17927;52.350;13.402;2022-09-16T04:36:07;100112.56;;;15.17;60.21
31299;BME280;17927;52.350;13.402;2022-09-16T04:38:34;100117.53;;;15.13;60.16
31299;BME280;17927;52.350;13.402;2022-09-16T04:41:02;100111.44;;;15.11;60.27
31299;BME280;17927;52.350;13.402;2022-09-16T04:43:27;100112.03;;;15.06;60.18
31299;BME280;17927;52.350;13.402;2022-09-16T04:45:53;100113.22;;;15.04;60.05
31299;BME280;17927;52.350;13.402;2022-09-16T04:48:18;100117.16;;;15.01;60.14
31299;BME280;17927;52.350;13.402;2022-09-16T04:50:43;100115.69;;;14.99;60.36
31299;BME280;17927;52.350;13.402;2022-09-16T04:53:08;100103.28;;;14.96;60.39
31299;BME280;17927;52.350;13.402;2022-09-16T04:55:33;100109.75;;;14.95;60.41
31299;BME280;17927;52.350;13.402;2022-09-16T04:57:59;100107.22;;;14.94;60.41
31299;BME280;17927;52.350;13.402;2022-09-16T05:00:25;100102.00;;;14.92;60.50
31299;BME280;17927;52.350;13.402;2022-09-16T05:02:51;100103.84;;;14.91;60.62
31299;BME280;17927;52.350;13.402;2022-09-16T05:05:18;100098.59;;;14.90;60.35
31299;BME280;17927;52.350;13.402;2022-09-16T05:07:44;100106.75;;;14.90;60.33
31299;BME280;17927;52.350;13.402;2022-09-16T05:10:09;100098.59;;;14.90;60.51
31299;BME280;17927;52.350;13.402;2022-09-16T05:12:34;100102.16;;;14.90;60.66
31299;BME280;17927;52.350;13.402;2022-09-16T05:15:00;100102.00;;;14.92;60.78
31299;BME280;17927;52.350;13.402;2022-09-16T05:17:25;100095.53;;;14.93;60.88
31299;BME280;17927;52.350;13.402;2022-09-16T05:19:50;100106.19;;;14.95;60.91
31299;BME280;17927;52.350;13.402;2022-09-16T05:22:15;100103.28;;;14.96;60.85
31299;BME280;17927;52.350;13.402;2022-09-16T05:24:40;100109.59;;;14.97;60.84
31299;BME280;17927;52.350;13.402;2022-09-16T05:27:08;100105.47;;;15.01;60.67
31299;BME280;17927;52.350;13.402;2022-09-16T05:29:33;100109.88;;;15.02;60.54
31299;BME280;17927;52.350;13.402;2022-09-16T05:31:58;100105.06;;;15.04;60.35
31299;BME280;17927;52.350;13.402;2022-09-16T05:34:24;100104.69;;;15.07;60.32
31299;BME280;17927;52.350;13.402;2022-09-16T05:36:54;100114.63;;;15.15;60.56
31299;BME280;17927;52.350;13.402;2022-09-16T05:39:20;100122.88;;;15.21;60.42
31299;BME280;17927;52.350;13.402;2022-09-16T05:41:46;100112.28;;;15.27;60.24
31299;BME280;17927;52.350;13.402;2022-09-16T05:44:12;100120.91;;;15.30;60.38
31299;BME280;17927;52.350;13.402;2022-09-16T05:46:38;100111.53;;;15.33;60.39
31299;BME280;17927;52.350;13.402;2022-09-16T05:49:08;100116.56;;;15.36;60.40
31299;BME280;17927;52.350;13.402;2022-09-16T05:51:33;100120.59;;;15.40;60.51
31299;BME280;17927;52.350;13.402;2022-09-16T05:54:00;100111.03;;;15.44;60.46
31299;BME280;17927;52.350;13.402;2022-09-16T05:56:27;100110.66;;;15.47;60.45
31299;BME280;17927;52.350;13.402;2022-09-16T05:58:55;100110.91;;;15.52;60.65
31299;BME280;17927;52.350;13.402;2022-09-16T06:01:24;100114.75;;;15.58;60.56
31299;BME280;17927;52.350;13.402;2022-09-16T06:03:50;100117.94;;;15.62;60.43
31299;BME280;17927;52.350;13.402;2022-09-16T06:06:33;100111.91;;;15.66;60.45
31299;BME280;17927;52.350;13.402;2022-09-16T06:09:18;100109.25;;;15.73;60.43
31299;BME280;17927;52.350;13.402;2022-09-16T06:11:46;100103.25;;;15.78;60.49
31299;BME280;17927;52.350;13.402;2022-09-16T06:14:12;100106.03;;;15.84;60.43
31299;BME280;17927;52.350;13.402;2022-09-16T06:16:38;100107.38;;;15.89;60.30
31299;BME280;17927;52.350;13.402;2022-09-16T06:19:06;100105.56;;;15.96;60.48
31299;BME280;17927;52.350;13.402;2022-09-16T06:21:34;100101.88;;;16.04;60.23
31299;BME280;17927;52.350;13.402;2022-09-16T06:23:59;100097.97;;;16.13;60.02
31299;BME280;17927;52.350;13.402;2022-09-16T06:26:25;100108.72;;;16.21;59.99
31299;BME280;17927;52.350;13.402;2022-09-16T06:28:51;100106.91;;;16.28;59.84
31299;BME280;17927;52.350;13.402;2022-09-16T06:31:22;100102.59;;;16.41;59.61
31299;BME280;17927;52.350;13.402;2022-09-16T06:33:48;100105.19;;;16.49;59.76
31299;BME280;17927;52.350;13.402;2022-09-16T06:36:19;100105.69;;;16.59;59.76
31299;BME280;17927;52.350;13.402;2022-09-16T06:38:44;100107.47;;;16.74;59.62
31299;BME280;17927;52.350;13.402;2022-09-16T06:41:11;100101.00;;;16.82;58.97
31299;BME280;17927;52.350;13.402;2022-09-16T06:43:37;100103.97;;;16.87;58.82
31299;BME280;17927;52.350;13.402;2022-09-16T06:46:06;100099.78;;;16.91;58.80
31299;BME280;17927;52.350;13.402;2022-09-16T06:48:34;100096.16;;;16.77;58.90
31299;BME280;17927;52.350;13.402;2022-09-16T06:51:02;100099.97;;;16.83;58.47
31299;BME280;17927;52.350;13.402;2022-09-16T06:53:27;100095.81;;;16.87;58.30
31299;BME280;17927;52.350;13.402;2022-09-16T06:55:53;100100.66;;;16.92;58.20
31299;BME280;17927;52.350;13.402;2022-09-16T06:58:18;100105.75;;;16.95;58.20
31299;BME280;17927;52.350;13.402;2022-09-16T07:00:43;100105.31;;;16.98;57.98
31299;BME280;17927;52.350;13.402;2022-09-16T07:03:09;100112.28;;;17.00;57.90
31299;BME280;17927;52.350;13.402;2022-09-16T07:05:34;100107.91;;;17.06;57.90
31299;BME280;17927;52.350;13.402;2022-09-16T07:07:59;100110.00;;;17.11;58.17
31299;BME280;17927;52.350;13.402;2022-09-16T07:10:24;100107.72;;;17.14;57.77
31299;BME280;17927;52.350;13.402;2022-09-16T07:12:50;100118.44;;;17.16;57.59
31299;BME280;17927;52.350;13.402;2022-09-16T07:15:16;100117.19;;;17.18;57.57
31299;BME280;17927;52.350;13.402;2022-09-16T07:17:41;100109.84;;;17.19;57.63
31299;BME280;17927;52.350;13.402;2022-09-16T07:20:06;100111.34;;;17.22;57.76
31299;BME280;17927;52.350;13.402;2022-09-16T07:22:32;100110.94;;;17.25;57.73
31299;BME280;17927;52.350;13.402;2022-09-16T07:24:57;100117.06;;;17.33;57.93
31299;BME280;17927;52.350;13.402;2022-09-16T07:27:22;100111.84;;;17.45;58.12
31299;BME280;17927;52.350;13.402;2022-09-16T07:29:48;100106.22;;;17.54;57.38
31299;BME280;17927;52.350;13.402;2022-09-16T07:32:13;100114.03;;;17.63;57.39
31299;BME280;17927;52.350;13.402;2022-09-16T07:34:38;100105.44;;;17.73;57.32
31299;BME280;17927;52.350;13.402;2022-09-16T07:37:03;100103.78;;;17.79;56.59
31299;BME280;17927;52.350;13.402;2022-09-16T07:39:29;100107.13;;;17.81;56.21
31299;BME280;17927;52.350;13.402;2022-09-16T07:41:54;100115.13;;;17.83;56.26
31299;BME280;17927;52.350;13.402;2022-09-16T07:44:19;100126.03;;;17.83;55.50
31299;BME280;17927;52.350;13.402;2022-09-16T07:46:45;100112.38;;;17.83;55.44
31299;BME280;17927;52.350;13.402;2022-09-16T07:49:12;100111.13;;;17.85;55.33
31299;BME280;17927;52.350;13.402;2022-09-16T07:51:38;100110.31;;;17.91;55.12
31299;BME280;17927;52.350;13.402;2022-09-16T07:54:06;100116.00;;;17.96;55.04
31299;BME280;17927;52.350;13.402;2022-09-16T07:56:34;100115.19;;;18.03;55.31
31299;BME280;17927;52.350;13.402;2022-09-16T07:59:01;100122.34;;;18.10;55.15
31299;BME280;17927;52.350;13.402;2022-09-16T08:01:27;100121.53;;;18.17;54.95
31299;BME280;17927;52.350;13.402;2022-09-16T08:03:55;100124.88;;;18.19;54.49
31299;BME280;17927;52.350;13.402;2022-09-16T08:06:22;100117.53;;;18.19;54.40
31299;BME280;17927;52.350;13.402;2022-09-16T08:08:52;100117.09;;;18.22;53.87
31299;BME280;17927;52.350;13.402;2022-09-16T08:11:19;100124.03;;;18.25;54.38
31299;BME280;17927;52.350;13.402;2022-09-16T08:13:44;100129.50;;;18.32;54.49
31299;BME280;17927;52.350;13.402;2022-09-16T08:16:13;100122.16;;;18.39;54.08
31299;BME280;17927;52.350;13.402;2022-09-16T08:18:38;100125.72;;;18.46;54.18
31299;BME280;17927;52.350;13.402;2022-09-16T08:21:05;100113.13;;;18.52;54.06
31299;BME280;17927;52.350;13.402;2022-09-16T08:23:32;100123.19;;;18.58;53.29
31299;BME280;17927;52.350;13.402;2022-09-16T08:25:58;100120.47;;;18.65;53.28
31299;BME280;17927;52.350;13.402;2022-09-16T08:28:24;100126.16;;;18.70;53.09
31299;BME280;17927;52.350;13.402;2022-09-16T08:30:49;100109.94;;;18.75;53.02
31299;BME280;17927;52.350;13.402;2022-09-16T08:33:15;100117.69;;;18.78;52.61
31299;BME280;17927;52.350;13.402;2022-09-16T08:35:45;100118.56;;;18.79;52.65
31299;BME280;17927;52.350;13.402;2022-09-16T08:38:10;100115.81;;;18.79;52.66
31299;BME280;17927;52.350;13.402;2022-09-16T08:40:37;100129.09;;;18.82;52.48
31299;BME280;17927;52.350;13.402;2022-09-16T08:43:27;100124.03;;;18.85;52.82
31299;BME280;17927;52.350;13.402;2022-09-16T08:46:08;100110.13;;;18.87;51.85
31299;BME280;17927;52.350;13.402;2022-09-16T08:48:53;100120.63;;;18.90;52.07
31299;BME280;17927;52.350;13.402;2022-09-16T08:51:22;100111.00;;;18.94;52.82
31299;BME280;17927;52.350;13.402;2022-09-16T08:53:57;100108.44;;;19.06;51.85
31299;BME280;17927;52.350;13.402;2022-09-16T08:56:24;100111.34;;;19.11;51.68
31299;BME280;17927;52.350;13.402;2022-09-16T08:58:54;100109.25;;;19.13;51.21
31299;BME280;17927;52.350;13.402;2022-09-16T09:01:36;100109.44;;;19.19;51.33
31299;BME280;17927;52.350;13.402;2022-09-16T09:04:04;100102.50;;;19.23;51.28
31299;BME280;17927;52.350;13.402;2022-09-16T09:09:42;100101.59;;;19.29;50.61
31299;BME280;17927;52.350;13.402;2022-09-16T09:12:29;100098.03;;;19.35;50.59
31299;BME280;17927;52.350;13.402;2022-09-16T09:15:09;100101.13;;;19.45;50.66
31299;BME280;17927;52.350;13.402;2022-09-16T09:20:37;100099.75;;;19.68;49.51
31299;BME280;17927;52.350;13.402;2022-09-16T09:23:30;100098.44;;;19.77;48.82
31299;BME280;17927;52.350;13.402;2022-09-16T09:26:18;100087.03;;;19.81;48.24
31299;BME280;17927;52.350;13.402;2022-09-16T09:40:16;100095.34;;;20.06;47.48
31299;BME280;17927;52.350;13.402;2022-09-16T09:43:09;100095.72;;;20.10;47.04
31299;BME280;17927;52.350;13.402;2022-09-16T09:45:40;100093.41;;;20.06;47.51
31299;BME280;17927;52.350;13.402;2022-09-16T09:48:21;100093.50;;;19.93;48.21
31299;BME280;17927;52.350;13.402;2022-09-16T09:50:48;100093.84;;;20.03;48.60
31299;BME280;17927;52.350;13.402;2022-09-16T09:53:24;100082.78;;;20.17;48.26
31299;BME280;17927;52.350;13.402;2022-09-16T09:55:58;100089.91;;;20.24;47.34
31299;BME280;17927;52.350;13.402;2022-09-16T09:58:43;100089.41;;;20.34;47.63
31299;BME280;17927;52.350;13.402;2022-09-16T10:01:12;100080.91;;;20.43;47.56
31299;BME280;17927;52.350;13.402;2022-09-16T10:03:39;100075.13;;;20.51;47.03
31299;BME280;17927;52.350;13.402;2022-09-16T10:06:05;100093.19;;;20.59;46.61
31299;BME280;17927;52.350;13.402;2022-09-16T10:08:49;100083.63;;;20.68;46.35
31299;BME280;17927;52.350;13.402;2022-09-16T10:11:27;100074.72;;;20.73;45.07
31299;BME280;17927;52.350;13.402;2022-09-16T10:13:57;100071.53;;;20.76;44.38
31299;BME280;17927;52.350;13.402;2022-09-16T10:16:44;100062.38;;;20.82;43.76
31299;BME280;17927;52.350;13.402;2022-09-16T10:19:20;100064.22;;;20.88;43.13
31299;BME280;17927;52.350;13.402;2022-09-16T10:21:49;100058.06;;;20.93;43.42
31299;BME280;17927;52.350;13.402;2022-09-16T10:24:30;100060.56;;;20.94;42.78
31299;BME280;17927;52.350;13.402;2022-09-16T10:26:57;100060.56;;;20.94;42.89
31299;BME280;17927;52.350;13.402;2022-09-16T10:29:23;100060.56;;;20.94;42.31
31299;BME280;17927;52.350;13.402;2022-09-16T10:31:48;100068.22;;;20.92;41.97
31299;BME280;17927;52.350;13.402;2022-09-16T10:34:23;100059.56;;;20.89;41.58
31299;BME280;17927;52.350;13.402;2022-09-16T10:39:39;100058.13;;;20.86;43.06
31299;BME280;17927;52.350;13.402;2022-09-16T10:42:17;100048.13;;;20.92;42.36
31299;BME280;17927;52.350;13.402;2022-09-16T10:44:43;100056.53;;;20.97;42.62
31299;BME280;17927;52.350;13.402;2022-09-16T10:47:23;100044.53;;;21.10;42.33
31299;BME280;17927;52.350;13.402;2022-09-16T10:49:53;100068.88;;;21.25;42.40
31299;BME280;17927;52.350;13.402;2022-09-16T10:52:22;100040.41;;;21.38;41.87
31299;BME280;17927;52.350;13.402;2022-09-16T10:54:48;100049.53;;;21.50;41.32
31299;BME280;17927;52.350;13.402;2022-09-16T10:57:26;100040.75;;;21.60;41.50
31299;BME280;17927;52.350;13.402;2022-09-16T11:00:22;100031.34;;;21.68;41.13
31299;BME280;17927;52.350;13.402;2022-09-16T11:08:40;100055.53;;;21.89;40.74
31299;BME280;17927;52.350;13.402;2022-09-16T11:11:19;100044.06;;;21.93;40.11
31299;BME280;17927;52.350;13.402;2022-09-16T11:14:02;100047.78;;;21.98;40.04
31299;BME280;17927;52.350;13.402;2022-09-16T11:16:53;100049.84;;;22.03;39.88
31299;BME280;17927;52.350;13.402;2022-09-16T11:19:37;100051.97;;;22.01;39.69
31299;BME280;17927;52.350;13.402;2022-09-16T11:22:16;100053.06;;;22.00;39.36
31299;BME280;17927;52.350;13.402;2022-09-16T11:30:22;100048.34;;;21.88;38.56
31299;BME280;17927;52.350;13.402;2022-09-16T11:33:05;100044.16;;;21.86;38.83
31299;BME280;17927;52.350;13.402;2022-09-16T11:38:42;100042.06;;;22.00;39.95
31299;BME280;17927;52.350;13.402;2022-09-16T11:41:26;100034.06;;;22.10;39.16
31299;BME280;17927;52.350;13.402;2022-09-16T11:52:04;100031.69;;;22.26;37.51
31299;BME280;17927;52.350;13.402;2022-09-16T11:55:02;100019.00;;;22.25;38.78
31299;BME280;17927;52.350;13.402;2022-09-16T11:57:43;100021.63;;;22.31;38.93
31299;BME280;17927;52.350;13.402;2022-09-16T12:00:13;100017.25;;;22.42;38.70
31299;BME280;17927;52.350;13.402;2022-09-16T12:03:00;99998.59;;;22.56;38.56
31299;BME280;17927;52.350;13.402;2022-09-16T12:05:39;100000.09;;;22.76;38.28
31299;BME280;17927;52.350;13.402;2022-09-16T12:08:14;99989.03;;;23.00;38.31
31299;BME280;17927;52.350;13.402;2022-09-16T12:10:59;99995.41;;;23.29;37.51
31299;BME280;17927;52.350;13.402;2022-09-16T12:13:37;99993.63;;;23.52;37.36
31299;BME280;17927;52.350;13.402;2022-09-16T12:16:07;100001.25;;;23.79;37.86
31299;BME280;17927;52.350;13.402;2022-09-16T12:18:37;100003.16;;;24.07;37.87
31299;BME280;17927;52.350;13.402;2022-09-16T12:21:11;99981.47;;;24.33;35.73
31299;BME280;17927;52.350;13.402;2022-09-16T12:23:46;99989.72;;;24.50;34.60
31299;BME280;17927;52.350;13.402;2022-09-16T12:26:20;99991.25;;;24.63;34.37
31299;BME280;17927;52.350;13.402;2022-09-16T12:29:04;99994.53;;;24.77;33.84
31299;BME280;17927;52.350;13.402;2022-09-16T12:31:42;99983.34;;;24.89;33.96
31299;BME280;17927;52.350;13.402;2022-09-16T12:34:13;99973.59;;;25.03;34.36
31299;BME280;17927;52.350;13.402;2022-09-16T12:36:43;99966.34;;;25.24;34.60
31299;BME280;17927;52.350;13.402;2022-09-16T12:39:10;99968.41;;;25.39;34.16
31299;BME280;17927;52.350;13.402;2022-09-16T12:47:40;99965.59;;;25.89;33.41
31299;BME280;17927;52.350;13.402;2022-09-16T12:55:42;99967.63;;;25.66;31.57
31299;BME280;17927;52.350;13.402;2022-09-16T13:01:05;99973.06;;;25.34;32.53
31299;BME280;17927;52.350;13.402;2022-09-16T13:03:39;99971.28;;;25.45;33.25
31299;BME280;17927;52.350;13.402;2022-09-16T13:06:20;99965.44;;;25.68;33.36
31299;BME280;17927;52.350;13.402;2022-09-16T13:08:46;99960.34;;;25.93;33.00
31299;BME280;17927;52.350;13.402;2022-09-16T13:11:30;99962.00;;;26.26;32.75
31299;BME280;17927;52.350;13.402;2022-09-16T13:13:57;99951.34;;;26.56;32.84
31299;BME280;17927;52.350;13.402;2022-09-16T13:16:28;99936.50;;;26.78;31.00
31299;BME280;17927;52.350;13.402;2022-09-16T13:21:46;99955.34;;;26.75;30.60
31299;BME280;17927;52.350;13.402;2022-09-16T13:26:44;99945.91;;;26.77;30.15
31299;BME280;17927;52.350;13.402;2022-09-16T13:29:39;99942.41;;;26.92;29.97
31299;BME280;17927;52.350;13.402;2022-09-16T13:32:24;99941.63;;;27.07;29.99
31299;BME280;17927;52.350;13.402;2022-09-16T13:34:59;99943.25;;;27.02;28.89
31299;BME280;17927;52.350;13.402;2022-09-16T13:37:25;99928.81;;;26.90;29.40
31299;BME280;17927;52.350;13.402;2022-09-16T13:39:50;99935.69;;;26.77;28.73
31299;BME280;17927;52.350;13.402;2022-09-16T13:42:18;99929.78;;;26.53;28.97
31299;BME280;17927;52.350;13.402;2022-09-16T13:44:48;99928.22;;;26.24;29.30
31299;BME280;17927;52.350;13.402;2022-09-16T13:47:28;99929.44;;;26.01;29.68
31299;BME280;17927;52.350;13.402;2022-09-16T13:49:58;99922.69;;;25.87;30.08
31299;BME280;17927;52.350;13.402;2022-09-16T13:52:30;99928.69;;;25.73;29.75
31299;BME280;17927;52.350;13.402;2022-09-16T13:54:59;99925.81;;;25.63;30.05
31299;BME280;17927;52.350;13.402;2022-09-16T13:57:57;99921.06;;;25.53;29.35
31299;BME280;17927;52.350;13.402;2022-09-16T14:00:26;99929.19;;;25.37;29.76
31299;BME280;17927;52.350;13.402;2022-09-16T14:08:33;99910.69;;;24.88;29.38
31299;BME280;17927;52.350;13.402;2022-09-16T14:13:48;99923.59;;;24.60;30.03
31299;BME280;17927;52.350;13.402;2022-09-16T14:16:21;99920.53;;;24.57;29.82
31299;BME280;17927;52.350;13.402;2022-09-16T14:19:02;99919.94;;;24.55;29.76
31299;BME280;17927;52.350;13.402;2022-09-16T14:21:29;99925.66;;;24.48;29.89
31299;BME280;17927;52.350;13.402;2022-09-16T14:23:54;99924.75;;;24.42;29.98
31299;BME280;17927;52.350;13.402;2022-09-16T14:26:21;99919.44;;;24.36;30.00
31299;BME280;17927;52.350;13.402;2022-09-16T14:28:47;99923.69;;;24.26;30.46
31299;BME280;17927;52.350;13.402;2022-09-16T14:31:28;99921.13;;;24.20;30.25